91°F Temp
63°F Dewpoint
38% Humidity
Temperature
15 MPH
24 KM/H
13 KTS
60°
East North
East

Wind Speed
Clear
Conditions
Pressure 1014.56 (hPa) - 29.96 (in)
Visibility 10.0 (mi) - 16.1 (km)

Current Conditions
KCBK
Location 5(mi)
Metar :KCBK 140015Z AUTO 06013G17KT 10SM CLR 33/17 A2996 RMK AO2 T03340172
Thu 13th June 18:15 pm

Airport
  Metar Aviation API Data Provided by https://www.checkwx.com/ PHP scripts by weather34.com ©2024